Aviation Digital Data Service (ADDS)

Output produced by METARs form (1348 UTC 13 December 2019)
found at http://www.aviationweather.gov/metar/data/
 
Forecast for: OEDF (KING FAHD INTL , SA)
Text: TAF OEDF 130900Z 1312/1418 15012KT CAVOK
Forecast period: 1200 to 1400 UTC 13 December 2019
Forecast type: FROM: standard forecast or significant change
Winds: from the SSE (150 degrees) at 14 MPH (12 knots; 6.2 m/s)
Visibility: 6 or more miles 10+ km)
Ceiling: unknown
Clouds: missing
Weather: NSW  (no significant weather)
Text: BECMG 1314/1316 22010KT
Forecast period: 1400 to 1900 UTC 13 December 2019
Forecast type: BECOMING: Conditions expected to become as follows by 1600 UTC 13 December 2019
Winds: from the SW (220 degrees) at 12 MPH (10 knots; 5.1 m/s)
Visibility: 6 or more miles 10+ km)
Ceiling: unknown
Clouds: missing
Weather: NSW  (no significant weather)
Text: BECMG 1319/1321 34010KT
Forecast period: 1900 UTC 13 December 2019 to 1800 UTC 14 December 2019
Forecast type: BECOMING: Conditions expected to become as follows by 2100 UTC 13 December 2019
Winds: from the NNW (340 degrees) at 12 MPH (10 knots; 5.1 m/s)
Visibility: 6 or more miles 10+ km)
Ceiling: unknown
Clouds: missing
Weather: NSW  (no significant weather)